Aérodrome :
LOGIN :

S'inscrire | Disclaimer

   EN    FR    IT 

 










Légende :    VFR   VFR Marginal   IFR   IFR Intensif   IFR Très Intensif
Visi : 
Plafond : 
>= 8 km
>= 3000ft
5 à 8 km
1000 à 3000 ft
1500m à 5 km
500 à 1000 ft
800 à 1500m
200 à 500 ft
< 800m
< 200 ft
Symboles :   Orages  Brouillard  Fortes neiges  Fortes précipitations  Vent > 20 kt
SIGMETs :   Divers  Orages  Givrage  Turbulence  Onde Orograph.  Cendres Volcan.







- Altitude de l'aérodrome : 238 ft
- Code IATA : FAB
- Voir les cartes d'approche


EGLF - Farnborough

DERNIER METAR :
  • 230950Z 06015KT 9999 SCT038 08/06 Q1014

METARs EXPIRÉS :
  • 230920Z 07011KT 8000 SCT010 08/06 Q1014
  • 230850Z 06012KT 7000 -DZ BKN010 08/06 Q1013
  • 230820Z 08012KT 6000 -RADZ BKN010 07/06 Q1013
  • 230750Z 07012KT 7000 BKN013 07/06 Q1013
  • 230720Z 05009KT 7000 -DZ SCT008 BKN010 07/06 Q1012

TAF TAF EGLF
Valide du 23 à 09h jusqu'au 23 à 18h UTC


230807Z 2309/2318 07012KT 7000 FEW045
BECMG 2309/2312 9999
PROB40
TEMPO 2309/2310 BKN014
TEMPO 2310/2318 08015G25KT
ATIS : +44 09063 800 400 (*282)
Pas de NOTAMs connus pour ce terrain.
1 SIGMET publié pour la FIR London (EGTT) :
 
Turbulence forte
EGTT SIGMET 01 VALID 230815/231215 EGRR
EGTT LONDON FIR SEV TURB FCST NW OF LINE N5500 W00134 - N5259 W00530 FL240/330 MOV SE 05KT NC=



MET'MAP, la Météo Aéronautique d'un coup d'oeil ! - Copyright ORBIFLY Décembre 2007 - Disclaimer

ORBIFLY MET'MAP TEAM :

Programmation & Développement : Alexandra Zaïnal
Conception & Développement : Baudouin d'Aumeries
Co-Programmation & Développement : Marc-Olivier Méhu
Soutien technique & logistique : Manuel Goepfert

Contact : metmap@orbifly.com




SOURCES & CREDITS :

   NOAA